createdAt,value
2023-05-12T00:01:39.669Z,100987.06
2023-05-12T00:04:09.823Z,100982.38
2023-05-12T00:06:40.078Z,100979.59
2023-05-12T00:09:10.361Z,100979.94
2023-05-12T00:11:43.388Z,100977.25
2023-05-12T00:14:13.508Z,100979.06
2023-05-12T00:16:43.747Z,100981.09
2023-05-12T00:19:15.248Z,100983.22
2023-05-12T00:21:45.565Z,100982.97
2023-05-12T00:24:19.433Z,100980.94
2023-05-12T00:26:52.472Z,100978.81
2023-05-12T00:29:22.866Z,100980.81
2023-05-12T00:31:53.135Z,100981.34
2023-05-12T00:34:23.359Z,100977.44
2023-05-12T00:36:53.433Z,100983.41
2023-05-12T00:39:24.011Z,100993.41
2023-05-12T00:42:12.305Z,100984.53
2023-05-12T00:44:42.300Z,100982.50
2023-05-12T00:47:13.096Z,100979.66
2023-05-12T00:49:44.393Z,100985.63
2023-05-12T00:52:14.883Z,100975.25
2023-05-12T00:54:45.875Z,100977.00
2023-05-12T00:57:18.577Z,100983.50
2023-05-12T00:59:48.674Z,100984.13
2023-05-12T01:02:21.261Z,100991.84
2023-05-12T01:04:53.055Z,100992.97
2023-05-12T01:07:25.931Z,100998.44
2023-05-12T01:09:58.374Z,101003.75
2023-05-12T01:12:33.764Z,101000.22
2023-05-12T01:15:04.949Z,101003.63
2023-05-12T01:17:37.924Z,100990.09
2023-05-12T01:20:18.418Z,100994.66
2023-05-12T01:22:51.100Z,100993.53
2023-05-12T01:25:25.432Z,100998.09
2023-05-12T01:27:58.744Z,100989.34
2023-05-12T01:30:30.666Z,100977.25
2023-05-12T01:33:01.181Z,100995.50
2023-05-12T01:35:31.825Z,100993.63
2023-05-12T01:38:04.411Z,101000.56
2023-05-12T01:40:37.908Z,100993.44
2023-05-12T01:43:10.526Z,101004.31
2023-05-12T01:45:40.824Z,101006.72
2023-05-12T01:48:11.007Z,101012.91
2023-05-12T01:50:42.555Z,101011.34
2023-05-12T01:53:17.026Z,101013.03
2023-05-12T01:55:55.466Z,101012.59
2023-05-12T01:58:33.724Z,101014.59
2023-05-12T02:01:04.259Z,101018.63
2023-05-12T02:03:35.193Z,101019.53
2023-05-12T02:06:07.448Z,100981.53
2023-05-12T02:08:37.908Z,101018.06
2023-05-12T02:11:09.911Z,101020.47
2023-05-12T02:13:47.072Z,101036.28
2023-05-12T02:16:17.962Z,101037.44
2023-05-12T02:18:48.569Z,101037.22
2023-05-12T02:21:18.713Z,101028.88
2023-05-12T02:23:48.821Z,101024.94
2023-05-12T02:26:19.591Z,101028.53
2023-05-12T02:28:52.418Z,101036.00
2023-05-12T02:31:23.819Z,101041.34
2023-05-12T02:33:54.636Z,101038.03
2023-05-12T02:36:30.117Z,101036.75
2023-05-12T02:39:09.660Z,101043.94
2023-05-12T02:41:40.730Z,101040.25
2023-05-12T02:44:16.814Z,101042.00
2023-05-12T02:46:46.899Z,101029.66
2023-05-12T02:49:16.922Z,101027.38
2023-05-12T02:51:51.126Z,101028.41
2023-05-12T02:54:21.537Z,101016.25
2023-05-12T02:56:51.583Z,101006.91
2023-05-12T02:59:24.290Z,101007.25
2023-05-12T03:01:55.934Z,101016.03
2023-05-12T03:04:26.356Z,101016.69
2023-05-12T03:06:59.221Z,101020.06
2023-05-12T03:09:31.047Z,101028.06
2023-05-12T03:12:05.977Z,101028.50
2023-05-12T03:14:39.494Z,101036.94
2023-05-12T03:17:09.688Z,101032.53
2023-05-12T03:19:39.871Z,101030.59
2023-05-12T03:22:13.865Z,101024.19
2023-05-12T03:24:48.927Z,101021.94
2023-05-12T03:27:21.136Z,101028.28
2023-05-12T03:29:54.709Z,101024.84
2023-05-12T03:32:25.078Z,101028.88
2023-05-12T03:34:55.346Z,101034.91
2023-05-12T03:37:28.293Z,101039.69
2023-05-12T03:39:58.788Z,101031.53
2023-05-12T03:42:37.687Z,101042.22
2023-05-12T03:45:25.248Z,101039.69
2023-05-12T03:47:57.911Z,101037.16
2023-05-12T03:50:31.399Z,101042.50
2023-05-12T03:53:04.069Z,101030.19
2023-05-12T03:55:34.972Z,101034.91
2023-05-12T03:58:09.375Z,101032.09
2023-05-12T04:00:53.594Z,101034.63
2023-05-12T04:03:23.726Z,101036.25
2023-05-12T04:06:00.122Z,101037.28
2023-05-12T04:08:31.316Z,101042.97
2023-05-12T04:11:05.080Z,101051.28
2023-05-12T04:13:35.047Z,101054.94
2023-05-12T04:16:08.458Z,101055.06
2023-05-12T04:18:40.961Z,101059.34
2023-05-12T04:21:14.970Z,101071.53
2023-05-12T04:23:45.796Z,101081.63
2023-05-12T04:26:16.053Z,101077.59
2023-05-12T04:28:46.245Z,101090.53
2023-05-12T04:31:21.601Z,101078.91
2023-05-12T04:33:56.100Z,101053.44
2023-05-12T04:36:27.938Z,101087.47
2023-05-12T04:38:58.242Z,101084.13
2023-05-12T04:41:28.691Z,101075.50
2023-05-12T04:44:11.496Z,101093.63
2023-05-12T04:46:47.005Z,101090.06
2023-05-12T04:49:17.055Z,101097.91
2023-05-12T04:51:47.043Z,101106.97
2023-05-12T04:54:17.153Z,101074.56
2023-05-12T04:56:47.492Z,101093.63
2023-05-12T04:59:18.462Z,101105.38
2023-05-12T05:01:53.763Z,101107.44
2023-05-12T05:04:24.204Z,101112.00
2023-05-12T05:06:55.754Z,101093.50
2023-05-12T05:09:26.694Z,101115.69
2023-05-12T05:12:00.193Z,101112.03
2023-05-12T05:14:31.063Z,101122.66
2023-05-12T05:17:03.843Z,101124.53
2023-05-12T05:19:50.968Z,101123.44
2023-05-12T05:22:27.569Z,101113.88
2023-05-12T05:24:57.938Z,101113.78
2023-05-12T05:27:30.013Z,101121.53
2023-05-12T05:30:00.948Z,101125.59
2023-05-12T05:32:35.573Z,101126.75
2023-05-12T05:35:07.127Z,101129.69
2023-05-12T05:37:39.574Z,101130.47
2023-05-12T05:40:11.508Z,101137.72
2023-05-12T05:42:41.581Z,101131.50
2023-05-12T05:45:13.275Z,101128.97
2023-05-12T05:47:46.848Z,101133.41
2023-05-12T05:50:17.190Z,101135.34
2023-05-12T05:52:47.250Z,101131.19
2023-05-12T05:55:17.664Z,101139.44
2023-05-12T05:57:48.248Z,101132.84
2023-05-12T06:00:19.253Z,101143.53
2023-05-12T06:03:07.499Z,101140.75
2023-05-12T06:05:38.001Z,101148.47
2023-05-12T06:08:09.545Z,101145.81
2023-05-12T06:10:43.138Z,101156.63
2023-05-12T06:13:18.173Z,101161.31
2023-05-12T06:15:50.038Z,101159.03
2023-05-12T06:18:22.673Z,101158.28
2023-05-12T06:20:53.496Z,101157.91
2023-05-12T06:23:24.277Z,101161.06
2023-05-12T06:25:54.927Z,101166.63
2023-05-12T06:28:30.845Z,101165.47
2023-05-12T06:31:01.317Z,101163.06
2023-05-12T06:33:34.084Z,101168.41
2023-05-12T06:36:05.071Z,101166.13
2023-05-12T06:38:43.419Z,101172.19
2023-05-12T06:41:13.901Z,101172.81
2023-05-12T06:43:48.522Z,101175.34
2023-05-12T06:46:21.413Z,101172.28
2023-05-12T06:48:58.297Z,101169.25
2023-05-12T06:51:33.219Z,101171.91
2023-05-12T06:54:05.590Z,101165.63
2023-05-12T06:56:35.665Z,101173.22
2023-05-12T06:59:08.160Z,101171.44
2023-05-12T07:01:38.632Z,101173.50
2023-05-12T07:04:27.014Z,101184.31
2023-05-12T07:06:57.173Z,101175.84
2023-05-12T07:09:27.468Z,101178.34
2023-05-12T07:11:57.833Z,101179.75
2023-05-12T07:14:31.258Z,101177.97
2023-05-12T07:17:01.213Z,101176.97
2023-05-12T07:19:40.649Z,101179.38
2023-05-12T07:22:16.340Z,101188.28
2023-05-12T07:24:48.299Z,101185.59
2023-05-12T07:27:18.445Z,101184.19
2023-05-12T07:29:51.831Z,101176.41
2023-05-12T07:32:22.013Z,101180.22
2023-05-12T07:34:54.604Z,101188.34
2023-05-12T07:37:24.703Z,101183.91
2023-05-12T07:39:57.702Z,101183.88
2023-05-12T07:42:27.874Z,101188.69
2023-05-12T07:44:58.227Z,101184.63
2023-05-12T07:47:29.197Z,101179.25
2023-05-12T07:50:01.887Z,101187.09
2023-05-12T07:52:39.455Z,101189.13
2023-05-12T07:55:15.709Z,101187.06
2023-05-12T07:57:52.480Z,101182.88
2023-05-12T08:00:23.164Z,101179.97
2023-05-12T08:02:56.534Z,101189.31
2023-05-12T08:05:29.814Z,101181.84
2023-05-12T08:07:59.844Z,101188.66
2023-05-12T08:10:30.164Z,101187.03
2023-05-12T08:13:00.367Z,101183.47
2023-05-12T08:15:30.486Z,101180.88
2023-05-12T08:18:00.487Z,101192.81
2023-05-12T08:20:36.261Z,101198.22
2023-05-12T08:23:08.137Z,101191.81
2023-05-12T08:25:40.932Z,101190.44
2023-05-12T08:28:23.239Z,101194.16
2023-05-12T08:30:55.146Z,101197.47
2023-05-12T08:33:26.194Z,101197.81
2023-05-12T08:35:59.140Z,101191.03
2023-05-12T08:38:33.538Z,101185.63
2023-05-12T08:41:14.472Z,101198.69
2023-05-12T08:43:49.653Z,101192.38
2023-05-12T08:46:20.073Z,101188.97
2023-05-12T08:48:55.450Z,101193.72
2023-05-12T08:51:32.134Z,101189.41
2023-05-12T08:54:03.359Z,101189.06
2023-05-12T08:59:10.937Z,101185.13
2023-05-12T09:01:44.178Z,101192.44
2023-05-12T09:04:16.617Z,101189.19
2023-05-12T09:06:49.918Z,101192.44
2023-05-12T09:09:21.582Z,101191.00
2023-05-12T09:11:56.099Z,101193.34
2023-05-12T09:14:28.315Z,101188.69
2023-05-12T09:17:03.328Z,101186.81
2023-05-12T09:19:34.572Z,101192.59
2023-05-12T09:22:14.937Z,101180.72
2023-05-12T09:24:44.980Z,101198.88
2023-05-12T09:27:16.089Z,101190.00
2023-05-12T09:29:58.526Z,101187.47
2023-05-12T09:32:35.416Z,101191.44
2023-05-12T09:35:06.984Z,101187.72
2023-05-12T09:37:40.472Z,101196.81
2023-05-12T09:40:14.316Z,101184.00
2023-05-12T09:42:45.444Z,101184.44
2023-05-12T09:45:19.288Z,101192.84
2023-05-12T09:47:51.552Z,101184.72
2023-05-12T09:50:23.014Z,101190.75
2023-05-12T09:52:55.534Z,101185.50
2023-05-12T09:55:26.339Z,101189.63
2023-05-12T09:57:58.226Z,101189.56
2023-05-12T10:00:43.509Z,101191.44
2023-05-12T10:03:23.114Z,101188.78
2023-05-12T10:05:56.490Z,101193.34
2023-05-12T10:08:37.250Z,101195.44
2023-05-12T10:11:08.735Z,101194.28
2023-05-12T10:13:39.531Z,101186.19
2023-05-12T10:16:18.929Z,101190.91
2023-05-12T10:18:49.798Z,101190.72
2023-05-12T10:21:24.811Z,101181.47
2023-05-12T10:23:58.029Z,101189.31
2023-05-12T10:26:31.153Z,101187.25
2023-05-12T10:29:03.004Z,101190.59
2023-05-12T10:31:33.757Z,101193.53
2023-05-12T10:34:06.092Z,101199.91
2023-05-12T10:36:46.531Z,101197.94
2023-05-12T10:39:20.163Z,101198.63
2023-05-12T10:41:51.172Z,101193.00
2023-05-12T10:44:30.093Z,101190.38
2023-05-12T10:47:01.063Z,101196.72
2023-05-12T10:49:42.389Z,101190.41
2023-05-12T10:52:14.280Z,101203.00
2023-05-12T10:54:50.289Z,101196.28
2023-05-12T10:57:24.086Z,101203.19
2023-05-12T10:59:56.034Z,101192.56
2023-05-12T11:02:30.735Z,101206.13
2023-05-12T11:05:04.627Z,101197.84
2023-05-12T11:07:41.816Z,101202.44
2023-05-12T11:10:18.271Z,101205.19
2023-05-12T11:12:51.067Z,101197.59
2023-05-12T11:15:23.818Z,101207.16
2023-05-12T11:17:54.077Z,101206.75
2023-05-12T11:20:30.181Z,101205.94
2023-05-12T11:23:01.022Z,101204.72
2023-05-12T11:25:36.277Z,101202.56
2023-05-12T11:28:13.865Z,101196.31
2023-05-12T11:30:54.880Z,101195.97
2023-05-12T11:33:26.704Z,101198.09
2023-05-12T11:35:56.840Z,101204.03
2023-05-12T11:38:29.764Z,101201.47
2023-05-12T11:41:17.149Z,101216.25
2023-05-12T11:43:47.302Z,101205.56
2023-05-12T11:46:26.830Z,101201.44
2023-05-12T11:48:58.394Z,101180.31
2023-05-12T11:51:32.595Z,101187.38
2023-05-12T11:54:04.307Z,101209.03
2023-05-12T11:56:40.372Z,101193.00
2023-05-12T11:59:19.371Z,101193.59
2023-05-12T12:01:51.093Z,101189.34
2023-05-12T12:04:21.148Z,101186.47
2023-05-12T12:06:51.261Z,101188.56
2023-05-12T12:09:21.795Z,101187.59
2023-05-12T12:11:54.452Z,101193.00
2023-05-12T12:14:25.134Z,101189.09
2023-05-12T12:16:57.340Z,101195.47
2023-05-12T12:19:29.803Z,101196.50
2023-05-12T12:22:00.460Z,101203.00
2023-05-12T12:24:31.361Z,101195.91
2023-05-12T12:27:04.794Z,101204.94
2023-05-12T12:29:34.896Z,101199.81
2023-05-12T12:32:04.936Z,101204.94
2023-05-12T12:34:37.901Z,101206.50
2023-05-12T12:37:08.140Z,101205.84
2023-05-12T12:39:40.408Z,101197.41
2023-05-12T12:42:13.608Z,101193.00
2023-05-12T12:44:50.491Z,101190.25
2023-05-12T12:47:20.787Z,101194.53
2023-05-12T12:49:51.818Z,101194.25
2023-05-12T12:52:21.771Z,101188.28
2023-05-12T12:54:51.812Z,101191.19
2023-05-12T12:57:26.259Z,101197.34
2023-05-12T12:59:56.857Z,101192.28
2023-05-12T13:02:42.213Z,101188.38
2023-05-12T13:05:20.501Z,101186.88
2023-05-12T13:07:53.735Z,101186.50
2023-05-12T13:10:25.545Z,101176.03
2023-05-12T13:12:58.232Z,101170.47
2023-05-12T13:15:28.841Z,101170.38
2023-05-12T13:18:01.252Z,101165.81
2023-05-12T13:23:19.341Z,101175.34
2023-05-12T13:25:52.212Z,101161.69
2023-05-12T13:28:24.857Z,101172.47
2023-05-12T13:30:55.147Z,101186.66
2023-05-12T13:33:25.313Z,101181.81
2023-05-12T13:36:02.201Z,101176.84
2023-05-12T13:38:34.953Z,101169.63
2023-05-12T13:41:05.483Z,101162.16
2023-05-12T13:43:38.893Z,101171.44
2023-05-12T13:46:13.301Z,101155.75
2023-05-12T13:48:43.361Z,101160.50
2023-05-12T13:51:13.757Z,101163.91
2023-05-12T13:53:45.241Z,101161.53
2023-05-12T13:56:19.006Z,101162.69
2023-05-12T13:58:51.646Z,101168.59
2023-05-12T14:01:21.865Z,101169.03
2023-05-12T14:03:51.900Z,101171.56
2023-05-12T14:06:21.852Z,101168.41
2023-05-12T14:09:00.129Z,101168.53
2023-05-12T14:11:30.188Z,101167.66
2023-05-12T14:14:03.654Z,101172.84
2023-05-12T14:16:34.444Z,101163.28
2023-05-12T14:19:05.368Z,101152.31
2023-05-12T14:21:37.044Z,101156.22
2023-05-12T14:24:08.596Z,101154.47
2023-05-12T14:26:38.879Z,101148.94
2023-05-12T14:29:20.489Z,101155.19
2023-05-12T14:31:51.011Z,101159.91
2023-05-12T14:34:24.976Z,101160.28
2023-05-12T14:36:54.724Z,101161.19
2023-05-12T14:39:24.978Z,101154.03
2023-05-12T14:41:56.443Z,101173.28
2023-05-12T14:44:29.031Z,101158.94
2023-05-12T14:47:09.187Z,101147.75
2023-05-12T14:49:44.747Z,101160.63
2023-05-12T14:52:15.936Z,101155.59
2023-05-12T14:54:46.643Z,101160.56
2023-05-12T14:57:22.299Z,101156.78
2023-05-12T14:59:58.840Z,101159.53
2023-05-12T15:02:31.250Z,101159.91
2023-05-12T15:05:01.382Z,101169.00
2023-05-12T15:07:31.817Z,101167.00
2023-05-12T15:10:01.951Z,101167.41
2023-05-12T15:12:32.015Z,101174.06
2023-05-12T15:15:05.403Z,101176.66
2023-05-12T15:17:38.900Z,101176.31
2023-05-12T15:20:11.281Z,101177.75
2023-05-12T15:22:41.423Z,101167.69
2023-05-12T15:25:19.253Z,101173.03
2023-05-12T15:27:49.623Z,101160.84
2023-05-12T15:30:37.794Z,101165.41
2023-05-12T15:33:07.975Z,101161.84
2023-05-12T15:35:42.580Z,101148.41
2023-05-12T15:38:21.871Z,101165.50
2023-05-12T15:40:52.475Z,101161.09
2023-05-12T15:43:29.752Z,101161.00
2023-05-12T15:46:04.741Z,101148.72
2023-05-12T15:48:35.540Z,101157.91
2023-05-12T15:51:06.251Z,101154.13
2023-05-12T15:53:36.514Z,101167.56
2023-05-12T15:56:09.025Z,101157.97
2023-05-12T15:58:39.107Z,101169.75
2023-05-12T16:01:11.805Z,101163.09
2023-05-12T16:03:42.627Z,101156.00
2023-05-12T16:06:14.776Z,101161.09
2023-05-12T16:08:48.625Z,101162.56
2023-05-12T16:11:26.711Z,101170.16
2023-05-12T16:13:57.488Z,101166.50
2023-05-12T16:16:30.978Z,101145.66
2023-05-12T16:19:01.375Z,101155.81
2023-05-12T16:21:34.228Z,101166.25
2023-05-12T16:24:08.899Z,101163.13
2023-05-12T16:26:39.390Z,101163.13
2023-05-12T16:29:09.636Z,101156.97
2023-05-12T16:31:43.718Z,101159.13
2023-05-12T16:34:13.528Z,101156.63
2023-05-12T16:36:50.849Z,101160.44
2023-05-12T16:39:20.910Z,101158.59
2023-05-12T16:41:51.579Z,101157.69
2023-05-12T16:44:22.135Z,101147.44
2023-05-12T16:46:54.843Z,101155.88
2023-05-12T16:49:27.619Z,101158.22
2023-05-12T16:51:57.688Z,101153.72
2023-05-12T16:54:27.759Z,101157.88
2023-05-12T16:56:59.160Z,101162.75
2023-05-12T16:59:32.618Z,101156.28
2023-05-12T17:02:05.434Z,101167.81
2023-05-12T17:04:35.550Z,101171.63
2023-05-12T17:07:05.724Z,101163.66
2023-05-12T17:09:35.782Z,101163.56
2023-05-12T17:12:09.474Z,101168.63
2023-05-12T17:14:40.486Z,101167.50
2023-05-12T17:17:17.509Z,101155.56
2023-05-12T17:19:47.645Z,101173.16
2023-05-12T17:22:17.797Z,101172.97
2023-05-12T17:24:48.828Z,101142.78
2023-05-12T17:27:18.807Z,101168.38
2023-05-12T17:29:50.544Z,101174.28
2023-05-12T17:32:26.483Z,101175.69
2023-05-12T17:34:58.995Z,101177.13
2023-05-12T17:37:30.390Z,101179.59
2023-05-12T17:40:01.435Z,101173.31
2023-05-12T17:42:32.125Z,101180.13
2023-05-12T17:45:02.174Z,101183.38
2023-05-12T17:47:35.256Z,101178.03
2023-05-12T17:50:05.335Z,101179.44
2023-05-12T17:52:37.801Z,101179.94
2023-05-12T17:55:09.087Z,101183.09
2023-05-12T17:57:39.174Z,101181.84
2023-05-12T18:00:11.036Z,101183.22
2023-05-12T18:02:49.365Z,101181.16
2023-05-12T18:05:20.508Z,101187.75
2023-05-12T18:07:54.061Z,101179.28
2023-05-12T18:10:28.120Z,101191.22
2023-05-12T18:13:00.927Z,101192.66
2023-05-12T18:15:31.173Z,101199.25
2023-05-12T18:18:03.941Z,101181.59
2023-05-12T18:20:34.104Z,101193.47
2023-05-12T18:23:04.193Z,101194.03
2023-05-12T18:25:35.634Z,101196.28
2023-05-12T18:28:06.671Z,101195.09
2023-05-12T18:30:36.828Z,101193.03
2023-05-12T18:33:09.690Z,101202.84
2023-05-12T18:35:39.801Z,101203.25
2023-05-12T18:38:10.000Z,101203.81
2023-05-12T18:40:41.212Z,101209.50
2023-05-12T18:43:13.710Z,101209.00
2023-05-12T18:45:43.666Z,101213.59
2023-05-12T18:48:16.288Z,101215.16
2023-05-12T18:50:46.841Z,101200.69
2023-05-12T18:53:17.364Z,101208.91
2023-05-12T18:55:51.743Z,101184.91
2023-05-12T18:58:23.263Z,101217.38
2023-05-12T19:00:53.434Z,101226.28
2023-05-12T19:03:27.472Z,101225.19
2023-05-12T19:05:59.963Z,101228.19
2023-05-12T19:08:30.298Z,101231.97
2023-05-12T19:11:03.001Z,101227.34
2023-05-12T19:13:43.569Z,101232.00
2023-05-12T19:16:13.632Z,101243.66
2023-05-12T19:18:46.416Z,101240.78
2023-05-12T19:21:16.724Z,101243.03
2023-05-12T19:23:47.124Z,101242.69
2023-05-12T19:26:17.553Z,101235.94
2023-05-12T19:28:52.617Z,101244.81
2023-05-12T19:31:22.901Z,101254.34
2023-05-12T19:33:56.381Z,101250.59
2023-05-12T19:36:27.804Z,101251.03
2023-05-12T19:39:00.487Z,101251.59
2023-05-12T19:41:31.082Z,101256.09
2023-05-12T19:44:01.920Z,101261.53
2023-05-12T19:46:33.751Z,101259.28
2023-05-12T19:49:06.483Z,101258.72
2023-05-12T19:51:36.935Z,101260.72
2023-05-12T19:54:16.032Z,101257.84
2023-05-12T19:56:46.356Z,101267.03
2023-05-12T19:59:18.832Z,101261.56
2023-05-12T20:01:49.904Z,101273.84
2023-05-12T20:04:22.857Z,101251.97
2023-05-12T20:06:54.601Z,101259.75
2023-05-12T20:09:26.136Z,101267.13
2023-05-12T20:11:56.977Z,101281.19
2023-05-12T20:14:27.559Z,101270.31
2023-05-12T20:16:59.219Z,101279.22
2023-05-12T20:19:32.320Z,101272.50
2023-05-12T20:22:02.822Z,101283.34
2023-05-12T20:24:33.394Z,101284.53
2023-05-12T20:27:03.776Z,101286.69
2023-05-12T20:29:34.761Z,101287.00
2023-05-12T20:32:05.273Z,101282.31
2023-05-12T20:34:38.337Z,101288.44
2023-05-12T20:37:14.221Z,101290.66
2023-05-12T20:39:44.770Z,101295.25
2023-05-12T20:42:15.788Z,101294.88
2023-05-12T20:44:46.194Z,101291.84
2023-05-12T20:47:16.545Z,101293.03
2023-05-12T20:49:54.221Z,101294.31
2023-05-12T20:52:29.010Z,101289.25
2023-05-12T20:55:00.802Z,101296.88
2023-05-12T20:57:32.418Z,101291.19
2023-05-12T21:00:02.577Z,101296.00
2023-05-12T21:02:34.489Z,101297.25
2023-05-12T21:05:12.311Z,101304.50
2023-05-12T21:07:42.659Z,101301.31
2023-05-12T21:10:13.941Z,101303.88
2023-05-12T21:12:46.001Z,101305.94
2023-05-12T21:15:17.236Z,101305.03
2023-05-12T21:17:50.239Z,101306.31
2023-05-12T21:20:45.228Z,101306.53
2023-05-12T21:23:15.817Z,101310.38
2023-05-12T21:25:46.153Z,101310.63
2023-05-12T21:28:19.426Z,101311.00
2023-05-12T21:30:49.568Z,101314.03
2023-05-12T21:33:19.630Z,101311.09
2023-05-12T21:35:52.546Z,101322.66
2023-05-12T21:38:24.989Z,101317.06
2023-05-12T21:41:00.845Z,101320.25
2023-05-12T21:43:31.011Z,101327.56
2023-05-12T21:46:05.399Z,101319.59
2023-05-12T21:48:35.624Z,101327.94
2023-05-12T21:51:08.595Z,101323.50
2023-05-12T21:53:40.736Z,101316.41
2023-05-12T21:56:13.079Z,101316.25
2023-05-12T21:58:44.960Z,101324.50
2023-05-12T22:01:17.437Z,101326.03
2023-05-12T22:03:56.235Z,101324.69
2023-05-12T22:06:29.180Z,101326.06
2023-05-12T22:08:59.478Z,101332.41
2023-05-12T22:11:29.833Z,101336.34
2023-05-12T22:14:00.145Z,101329.22
2023-05-12T22:16:40.640Z,101335.69
2023-05-12T22:19:19.730Z,101332.59
2023-05-12T22:21:59.755Z,101336.38
2023-05-12T22:24:30.255Z,101333.44
2023-05-12T22:27:00.285Z,101335.69
2023-05-12T22:29:33.820Z,101344.84
2023-05-12T22:32:03.858Z,101340.75
2023-05-12T22:34:33.927Z,101341.47
2023-05-12T22:37:06.557Z,101349.56
2023-05-12T22:39:36.679Z,101348.53
2023-05-12T22:42:12.374Z,101347.25
2023-05-12T22:44:42.450Z,101351.59
2023-05-12T22:47:12.637Z,101342.78
2023-05-12T22:49:42.802Z,101350.25
2023-05-12T22:52:15.481Z,101355.06
2023-05-12T22:54:57.892Z,101353.16
2023-05-12T22:57:29.842Z,101356.28
2023-05-12T23:00:02.350Z,101343.97
2023-05-12T23:02:35.482Z,101349.66
2023-05-12T23:05:06.507Z,101351.44
2023-05-12T23:07:39.369Z,101359.94
2023-05-12T23:10:12.014Z,101352.94
2023-05-12T23:12:42.309Z,101354.56
2023-05-12T23:15:20.712Z,101353.56
2023-05-12T23:17:50.859Z,101346.28
2023-05-12T23:20:24.458Z,101350.34
2023-05-12T23:22:57.044Z,101347.28
2023-05-12T23:25:29.431Z,101352.94
2023-05-12T23:28:00.865Z,101347.44
2023-05-12T23:30:32.266Z,101352.38
2023-05-12T23:33:02.700Z,101349.72
2023-05-12T23:35:33.880Z,101346.16
2023-05-12T23:38:06.766Z,101350.06
2023-05-12T23:40:39.367Z,101345.28
2023-05-12T23:43:09.777Z,101337.13
2023-05-12T23:45:42.212Z,101342.19
2023-05-12T23:48:12.301Z,101337.47
2023-05-12T23:50:42.412Z,101346.44
2023-05-12T23:53:18.143Z,101349.69
2023-05-12T23:55:55.697Z,101346.00
2023-05-12T23:58:25.732Z,101344.97
